Etusivu
METAR-TAF:

METAR-TAF

Lentoasemat :

Adıyaman, Turkki

Leveyspiiri: 37-43-54N, Pituuspiiri: 38-28-08E, korkeus merenpinnasta: 675 m

Tämänhetkinen sää

Tämä raportti tehtiin 5 tuntia ja 16 minuuttia sitten, kello 12.50 UTC
Tuuli 18 kn lännestä/lounaasta
Lämpötila 24°C
Kosteus 24%
Ilmanpaine 1012 hPa
Näkyvyys 10 km tai enemmän
Hajanaisia pilviä 4000 ft:n korkeudessa

METAR: LTCP 291250Z 24018KT 9999 SCT040 24/02 Q1012

Aika: 21:06 (18:06 UTC)

Sääennuste

Tämä raportti tehtiin 4 tuntia ja 26 minuuttia sitten, kello 13.40 UTC
Ennuste voimassa 29. päivästä klo 15 UTC - 29. päivään klo 24 UTC
Tuuli 15 kn lounaasta
Näkyvyys 10 km tai enemmän
Hajanaisia pilviä 4000 ft:n korkeudessa
Tulossa
29. päivästä klo 18 UTC - 29. päivään klo 20 UTC
Tuuli 2 kn eri suunnista
Näkyvyys 10 km tai enemmän
ei pilviä alle 1500 m:ssä eikä cumulonimbus-pilviä

TAF: LTCP 291340Z 2915/2924 23015KT 9999 SCT040 BECMG 2918/2920 VRB02KT CAVOK

Säähavainnot ja -ennusteet yli 4000 lentoasemalta (METAR- ja TAF-raportit).

Käytössä olevat sääasemat on merkitty karttaan keltaisilla ja punaisilla pisteillä.

Aseta hiiri pisteen päälle nähdäksesi sääaseman nimen.

Klikkaa sitten nähdäksesi säähavainnot ja -ennusteet.

Kartan vaihtaminen: klikkaa mustalla rastilla varustettuja vihreitä pisteitä, niin voit zoomata sisään; viivalla varustettua vihreää pistettä, niin voit zoomata ulos tai vihreitä nuolia, niin pääset viereisille kartoille.


METAR-TAF: